createdAt,value
2022-12-07T00:00:40.579Z,100781.34
2022-12-07T00:03:11.354Z,100771.00
2022-12-07T00:05:42.372Z,100777.84
2022-12-07T00:08:13.562Z,100785.22
2022-12-07T00:10:44.637Z,100779.34
2022-12-07T00:13:15.401Z,100787.88
2022-12-07T00:15:46.518Z,100784.47
2022-12-07T00:18:17.760Z,100790.53
2022-12-07T00:20:48.513Z,100801.75
2022-12-07T00:23:19.425Z,100788.88
2022-12-07T00:25:51.720Z,100782.03
2022-12-07T00:28:22.428Z,100770.50
2022-12-07T00:30:55.976Z,100767.31
2022-12-07T00:33:26.742Z,100765.25
2022-12-07T00:36:01.546Z,100751.44
2022-12-07T00:38:35.046Z,100754.28
2022-12-07T00:41:08.745Z,100742.16
2022-12-07T00:43:39.719Z,100750.22
2022-12-07T00:46:11.164Z,100746.00
2022-12-07T00:48:41.887Z,100744.31
2022-12-07T00:51:15.000Z,100749.63
2022-12-07T00:53:46.425Z,100731.53
2022-12-07T00:56:18.652Z,100742.47
2022-12-07T00:59:00.212Z,100732.84
2022-12-07T01:01:34.925Z,100729.28
2022-12-07T01:04:06.815Z,100727.50
2022-12-07T01:06:37.466Z,100728.47
2022-12-07T01:09:08.677Z,100714.44
2022-12-07T01:11:39.764Z,100721.66
2022-12-07T01:14:11.341Z,100717.84
2022-12-07T01:16:42.908Z,100717.19
2022-12-07T01:19:13.921Z,100708.13
2022-12-07T01:21:44.624Z,100711.28
2022-12-07T01:24:15.896Z,100711.00
2022-12-07T01:26:46.915Z,100708.22
2022-12-07T01:29:18.005Z,100716.25
2022-12-07T01:31:52.774Z,100706.44
2022-12-07T01:34:23.701Z,100699.50
2022-12-07T01:36:54.675Z,100712.69
2022-12-07T01:39:25.839Z,100717.84
2022-12-07T01:41:57.111Z,100716.34
2022-12-07T01:44:32.267Z,100710.31
2022-12-07T01:47:04.709Z,100711.72
2022-12-07T01:49:49.133Z,100715.50
2022-12-07T01:52:23.618Z,100711.38
2022-12-07T01:54:59.295Z,100718.16
2022-12-07T01:57:30.542Z,100719.41
2022-12-07T02:00:02.566Z,100728.75
2022-12-07T02:03:22.793Z,100718.81
2022-12-07T02:05:54.839Z,100726.16
2022-12-07T02:08:26.323Z,100727.03
2022-12-07T02:10:58.243Z,100726.56
2022-12-07T02:13:33.193Z,100726.69
2022-12-07T02:16:12.095Z,100729.13
2022-12-07T02:18:52.476Z,100722.13
2022-12-07T02:21:41.897Z,100719.88
2022-12-07T02:24:22.603Z,100729.44
2022-12-07T02:27:14.824Z,100727.69
2022-12-07T02:30:05.877Z,100727.19
2022-12-07T02:32:36.952Z,100718.56
2022-12-07T02:35:23.495Z,100728.16
2022-12-07T02:38:21.746Z,100716.44
2022-12-07T02:41:01.269Z,100711.25
2022-12-07T02:43:42.252Z,100707.00
2022-12-07T02:46:40.519Z,100714.06
2022-12-07T02:49:12.138Z,100705.56
2022-12-07T02:51:46.164Z,100718.66
2022-12-07T02:54:18.964Z,100708.22
2022-12-07T02:57:04.707Z,100704.53
2022-12-07T03:00:07.694Z,100696.06
2022-12-07T03:03:10.527Z,100704.31
2022-12-07T03:05:50.740Z,100703.19
2022-12-07T03:08:36.431Z,100707.97
2022-12-07T03:11:10.714Z,100688.72
2022-12-07T03:13:48.670Z,100702.69
2022-12-07T03:16:31.074Z,100697.28
2022-12-07T03:19:11.311Z,100690.63
2022-12-07T03:22:06.159Z,100696.84
2022-12-07T03:24:55.514Z,100692.47
2022-12-07T03:27:36.632Z,100679.66
2022-12-07T03:30:18.456Z,100689.88
2022-12-07T03:32:48.619Z,100702.44
2022-12-07T03:35:26.293Z,100704.47
2022-12-07T03:38:22.939Z,100698.41
2022-12-07T03:41:44.996Z,100700.66
2022-12-07T03:44:17.031Z,100692.75
2022-12-07T03:46:52.579Z,100697.19
2022-12-07T03:49:26.151Z,100698.91
2022-12-07T03:52:15.798Z,100684.38
2022-12-07T03:55:03.841Z,100694.69
2022-12-07T03:57:35.994Z,100681.06
2022-12-07T04:00:09.058Z,100697.22
2022-12-07T04:02:43.844Z,100693.69
2022-12-07T04:05:15.161Z,100700.75
2022-12-07T04:07:46.128Z,100693.13
2022-12-07T04:10:17.652Z,100691.69
2022-12-07T04:12:48.912Z,100692.94
2022-12-07T04:15:19.935Z,100686.22
2022-12-07T04:17:51.091Z,100695.25
2022-12-07T04:20:21.901Z,100691.31
2022-12-07T04:22:52.626Z,100685.44
2022-12-07T04:25:23.356Z,100681.38
2022-12-07T04:27:54.743Z,100680.78
2022-12-07T04:30:25.733Z,100681.81
2022-12-07T04:32:56.918Z,100674.53
2022-12-07T04:35:27.843Z,100685.59
2022-12-07T04:37:59.071Z,100677.00
2022-12-07T04:40:29.987Z,100675.88
2022-12-07T04:43:01.284Z,100680.00
2022-12-07T04:45:32.325Z,100685.78
2022-12-07T04:48:03.278Z,100687.03
2022-12-07T04:50:34.054Z,100681.03
2022-12-07T04:53:05.247Z,100680.09
2022-12-07T04:55:36.461Z,100684.63
2022-12-07T04:58:07.692Z,100680.50
2022-12-07T05:00:38.519Z,100690.63
2022-12-07T05:03:09.890Z,100677.38
2022-12-07T05:05:44.303Z,100680.31
2022-12-07T05:08:15.260Z,100685.06
2022-12-07T05:10:46.487Z,100686.00
2022-12-07T05:13:17.795Z,100684.53
2022-12-07T05:15:50.712Z,100687.91
2022-12-07T05:18:21.753Z,100684.56
2022-12-07T05:20:53.514Z,100682.97
2022-12-07T05:23:23.897Z,100685.91
2022-12-07T05:25:55.254Z,100687.19
2022-12-07T05:28:26.333Z,100676.72
2022-12-07T05:30:59.836Z,100689.47
2022-12-07T05:33:30.877Z,100686.72
2022-12-07T05:36:07.732Z,100687.50
2022-12-07T05:38:38.642Z,100688.88
2022-12-07T05:41:30.229Z,100693.47
2022-12-07T05:44:01.749Z,100689.50
2022-12-07T05:46:32.765Z,100691.19
2022-12-07T05:49:04.182Z,100702.00
2022-12-07T05:51:34.786Z,100697.22
2022-12-07T05:54:06.209Z,100712.78
2022-12-07T05:56:37.456Z,100705.22
2022-12-07T05:59:26.522Z,100711.44
2022-12-07T06:01:59.921Z,100705.97
2022-12-07T06:04:36.395Z,100716.00
2022-12-07T06:07:07.738Z,100714.38
2022-12-07T06:09:39.555Z,100726.56
2022-12-07T06:12:31.125Z,100731.31
2022-12-07T06:15:02.324Z,100730.28
2022-12-07T06:17:33.642Z,100739.38
2022-12-07T06:20:04.876Z,100730.78
2022-12-07T06:22:35.812Z,100735.97
2022-12-07T06:25:08.712Z,100731.03
2022-12-07T06:27:40.126Z,100745.03
2022-12-07T06:30:11.397Z,100745.25
2022-12-07T06:32:42.524Z,100741.78
2022-12-07T06:35:13.685Z,100750.56
2022-12-07T06:37:44.537Z,100760.78
2022-12-07T06:40:15.641Z,100763.16
2022-12-07T06:42:46.598Z,100765.22
2022-12-07T06:45:18.170Z,100756.53
2022-12-07T06:47:49.403Z,100768.91
2022-12-07T06:50:20.840Z,100761.66
2022-12-07T06:52:51.603Z,100765.13
2022-12-07T06:55:22.806Z,100770.66
2022-12-07T06:57:53.607Z,100785.84
2022-12-07T07:00:25.110Z,100788.47
2022-12-07T07:02:56.185Z,100788.41
2022-12-07T07:05:27.368Z,100783.91
2022-12-07T07:08:21.587Z,100796.69
2022-12-07T07:10:48.868Z,100800.41
2022-12-07T07:13:20.044Z,100797.72
2022-12-07T07:15:50.973Z,100805.63
2022-12-07T07:18:21.646Z,100798.84
2022-12-07T07:20:54.390Z,100816.03
2022-12-07T07:23:25.979Z,100808.72
2022-12-07T07:25:56.866Z,100814.25
2022-12-07T07:28:27.935Z,100824.09
2022-12-07T07:30:59.235Z,100826.06
2022-12-07T07:33:30.251Z,100821.78
2022-12-07T07:36:01.393Z,100816.38
2022-12-07T07:38:32.958Z,100824.31
2022-12-07T07:41:04.085Z,100817.06
2022-12-07T07:43:35.755Z,100822.56
2022-12-07T07:46:07.161Z,100832.63
2022-12-07T07:48:38.376Z,100842.50
2022-12-07T07:51:10.827Z,100841.72
2022-12-07T07:53:41.755Z,100840.91
2022-12-07T07:56:12.891Z,100839.84
2022-12-07T07:58:43.869Z,100836.41
2022-12-07T08:01:16.102Z,100834.84
2022-12-07T08:03:46.890Z,100849.56
2022-12-07T08:06:17.705Z,100852.50
2022-12-07T08:08:48.592Z,100867.25
2022-12-07T08:11:19.563Z,100866.75
2022-12-07T08:13:50.812Z,100879.25
2022-12-07T08:16:21.889Z,100881.19
2022-12-07T08:18:53.150Z,100885.28
2022-12-07T08:21:24.113Z,100890.47
2022-12-07T08:23:54.908Z,100897.56
2022-12-07T08:26:25.877Z,100905.16
2022-12-07T08:28:57.063Z,100906.78
2022-12-07T08:31:30.214Z,100913.06
2022-12-07T08:34:01.504Z,100911.97
2022-12-07T08:36:32.635Z,100913.34
2022-12-07T08:41:54.818Z,100922.03
2022-12-07T08:44:25.825Z,100924.19
2022-12-07T08:46:57.930Z,100933.97
2022-12-07T08:49:38.707Z,100935.59
2022-12-07T08:52:09.850Z,100940.75
2022-12-07T08:54:42.354Z,100945.34
2022-12-07T08:57:13.870Z,100949.41
2022-12-07T08:59:44.641Z,100954.56
2022-12-07T09:02:15.689Z,100951.53
2022-12-07T09:04:46.766Z,100960.75
2022-12-07T09:07:17.785Z,100967.44
2022-12-07T09:09:48.794Z,100973.91
2022-12-07T09:12:19.749Z,100973.66
2022-12-07T09:14:50.999Z,100979.34
2022-12-07T09:17:22.063Z,100983.94
2022-12-07T09:19:53.332Z,100989.84
2022-12-07T09:22:24.467Z,100988.53
2022-12-07T09:24:55.624Z,100987.63
2022-12-07T09:27:27.120Z,100987.91
2022-12-07T09:29:58.201Z,100988.97
2022-12-07T09:32:29.001Z,100990.28
2022-12-07T09:34:59.989Z,100990.28
2022-12-07T09:37:31.697Z,100992.97
2022-12-07T09:40:02.916Z,100996.75
2022-12-07T09:42:41.998Z,100990.44
2022-12-07T09:45:20.810Z,100992.31
2022-12-07T09:47:52.231Z,100992.53
2022-12-07T09:50:26.491Z,100991.19
2022-12-07T09:53:28.621Z,101003.38
2022-12-07T09:55:59.909Z,100996.53
2022-12-07T09:58:32.491Z,101000.56
2022-12-07T10:01:12.488Z,101002.69
2022-12-07T10:03:48.551Z,101000.47
2022-12-07T10:06:19.997Z,100996.09
2022-12-07T10:08:51.440Z,101011.84
2022-12-07T10:11:22.444Z,101006.28
2022-12-07T10:13:56.404Z,101006.28
2022-12-07T10:16:42.702Z,101011.41
2022-12-07T10:19:22.549Z,101017.84
2022-12-07T10:22:16.271Z,101016.22
2022-12-07T10:24:50.245Z,101019.72
2022-12-07T10:27:35.295Z,101018.81
2022-12-07T10:30:12.206Z,101017.13
2022-12-07T10:32:43.311Z,101009.28
2022-12-07T10:35:28.074Z,101014.13
2022-12-07T10:38:01.485Z,101006.59
2022-12-07T10:40:39.788Z,101000.84
2022-12-07T10:43:17.460Z,100997.31
2022-12-07T10:46:05.520Z,101004.31
2022-12-07T10:48:52.141Z,100991.59
2022-12-07T10:51:50.021Z,100994.25
2022-12-07T10:54:41.496Z,100995.63
2022-12-07T10:57:33.280Z,100997.97
2022-12-07T11:00:24.897Z,101000.69
2022-12-07T11:03:19.609Z,100991.78
2022-12-07T11:06:04.833Z,101006.97
2022-12-07T11:08:38.942Z,100999.84
2022-12-07T11:11:16.441Z,100998.75
2022-12-07T11:14:18.965Z,101001.78
2022-12-07T11:16:59.722Z,101005.09
2022-12-07T11:19:54.918Z,101003.09
2022-12-07T11:22:44.375Z,101012.28
2022-12-07T11:25:29.049Z,101017.19
2022-12-07T11:28:29.002Z,101023.19
2022-12-07T11:31:48.701Z,101024.22
2022-12-07T11:34:37.677Z,101026.94
2022-12-07T11:37:17.049Z,101023.50
2022-12-07T11:39:55.018Z,101029.38
2022-12-07T11:42:28.990Z,101025.13
2022-12-07T11:45:04.142Z,101035.63
2022-12-07T11:48:14.175Z,101030.22
2022-12-07T11:50:51.731Z,101025.06
2022-12-07T11:53:48.412Z,101031.00
2022-12-07T11:56:22.590Z,101031.31
2022-12-07T11:59:53.958Z,101034.91
2022-12-07T12:02:35.777Z,101023.03
2022-12-07T12:05:26.140Z,101033.78
2022-12-07T12:11:37.662Z,101033.47
2022-12-07T12:17:26.883Z,101025.34
2022-12-07T12:20:22.737Z,101033.28
2022-12-07T12:23:09.787Z,101041.03
2022-12-07T12:25:45.183Z,101034.56
2022-12-07T12:28:49.915Z,101039.50
2022-12-07T12:31:24.613Z,101047.06
2022-12-07T12:33:58.545Z,101042.69
2022-12-07T12:36:32.063Z,101038.41
2022-12-07T12:39:21.132Z,101042.69
2022-12-07T12:41:51.814Z,101041.34
2022-12-07T12:44:25.986Z,101021.78
2022-12-07T12:47:01.537Z,101032.72
2022-12-07T12:49:32.273Z,101038.00
2022-12-07T12:52:26.406Z,101033.38
2022-12-07T12:55:04.665Z,101025.19
2022-12-07T12:57:36.260Z,101022.19
2022-12-07T13:00:24.401Z,101026.69
2022-12-07T13:03:01.443Z,101018.06
2022-12-07T13:05:33.822Z,101024.91
2022-12-07T13:08:21.872Z,101018.88
2022-12-07T13:10:52.839Z,101018.56
2022-12-07T13:13:24.978Z,101019.38
2022-12-07T13:15:56.431Z,101017.69
2022-12-07T13:18:33.445Z,101016.22
2022-12-07T13:21:10.530Z,101018.63
2022-12-07T13:23:56.560Z,101021.28
2022-12-07T13:26:34.790Z,101020.41
2022-12-07T13:29:17.149Z,101015.09
2022-12-07T13:31:50.172Z,101011.09
2022-12-07T13:34:41.044Z,101015.06
2022-12-07T13:37:18.192Z,101023.13
2022-12-07T13:39:54.993Z,101027.06
2022-12-07T13:42:37.606Z,101004.13
2022-12-07T13:45:52.692Z,101016.94
2022-12-07T13:48:49.070Z,101009.97
2022-12-07T13:51:28.127Z,101016.38
2022-12-07T13:54:04.698Z,101015.94
2022-12-07T13:56:37.957Z,101019.34
2022-12-07T13:59:17.358Z,101013.16
2022-12-07T14:01:50.595Z,101008.84
2022-12-07T14:04:35.851Z,101003.91
2022-12-07T14:07:28.092Z,101015.00
2022-12-07T14:10:08.070Z,101005.19
2022-12-07T14:12:40.069Z,101011.41
2022-12-07T14:15:19.200Z,101015.88
2022-12-07T14:17:55.212Z,101015.88
2022-12-07T14:20:33.766Z,101004.22
2022-12-07T14:23:11.453Z,101008.53
2022-12-07T14:25:51.545Z,101011.47
2022-12-07T14:28:34.184Z,101013.94
2022-12-07T14:34:26.582Z,101002.22
2022-12-07T14:36:57.779Z,101005.44
2022-12-07T14:39:28.736Z,101002.75
2022-12-07T14:41:59.486Z,100999.34
2022-12-07T14:44:35.567Z,101014.31
2022-12-07T14:50:00.406Z,101025.06
2022-12-07T14:55:32.099Z,101025.84
2022-12-07T14:58:03.563Z,101022.59
2022-12-07T15:00:36.595Z,101014.44
2022-12-07T15:03:07.606Z,101018.44
2022-12-07T15:05:40.004Z,101028.72
2022-12-07T15:08:13.949Z,101028.84
2022-12-07T15:10:45.265Z,101026.88
2022-12-07T15:13:33.953Z,101025.25
2022-12-07T15:16:05.027Z,101026.88
2022-12-07T15:18:36.203Z,101027.94
2022-12-07T15:21:07.019Z,101027.31
2022-12-07T15:23:38.194Z,101026.75
2022-12-07T15:26:10.373Z,101031.09
2022-12-07T15:28:41.357Z,101030.25
2022-12-07T15:31:46.982Z,101030.25
2022-12-07T15:34:10.019Z,101035.34
2022-12-07T15:36:41.001Z,101028.16
2022-12-07T15:39:14.753Z,101024.94
2022-12-07T15:41:46.229Z,101025.38
2022-12-07T15:44:36.107Z,101030.16
2022-12-07T15:47:07.766Z,101023.94
2022-12-07T15:49:38.560Z,101021.03
2022-12-07T15:52:09.505Z,101010.28
2022-12-07T15:54:40.747Z,101013.56
2022-12-07T15:57:12.255Z,101009.28
2022-12-07T15:59:43.058Z,101004.72
2022-12-07T16:02:14.183Z,101012.19
2022-12-07T16:04:46.360Z,100993.44
2022-12-07T16:07:18.348Z,101006.34
2022-12-07T16:09:50.059Z,101008.66
2022-12-07T16:12:20.965Z,101010.22
2022-12-07T16:14:51.834Z,101006.06
2022-12-07T16:17:22.571Z,101012.59
2022-12-07T16:19:53.456Z,101022.69
2022-12-07T16:22:24.195Z,101015.28
2022-12-07T16:24:54.906Z,101023.31
2022-12-07T16:27:25.618Z,101023.09
2022-12-07T16:29:56.601Z,101030.28
2022-12-07T16:32:27.852Z,101028.00
2022-12-07T16:34:58.791Z,101030.19
2022-12-07T16:37:29.571Z,101032.09
2022-12-07T16:40:00.276Z,101037.84
2022-12-07T16:42:37.918Z,101037.19
2022-12-07T16:45:09.206Z,101048.56
2022-12-07T16:47:43.671Z,101027.50
2022-12-07T16:50:14.349Z,101031.03
2022-12-07T16:52:45.668Z,101032.81
2022-12-07T16:55:17.716Z,101032.91
2022-12-07T16:57:49.359Z,101032.41
2022-12-07T17:00:20.952Z,101022.84
2022-12-07T17:02:52.078Z,101028.00
2022-12-07T17:05:23.069Z,101029.97
2022-12-07T17:07:54.265Z,101032.91
2022-12-07T17:10:26.043Z,101047.13
2022-12-07T17:12:57.009Z,101040.28
2022-12-07T17:15:27.720Z,101041.84
2022-12-07T17:18:00.601Z,101048.78
2022-12-07T17:20:31.618Z,101049.03
2022-12-07T17:23:02.868Z,101050.59
2022-12-07T17:25:34.375Z,101051.59
2022-12-07T17:28:05.660Z,101050.19
2022-12-07T17:30:36.861Z,101053.47
2022-12-07T17:33:07.809Z,101058.47
2022-12-07T17:35:39.063Z,101056.03
2022-12-07T17:38:09.945Z,101065.44
2022-12-07T17:40:40.733Z,101069.28
2022-12-07T17:43:11.727Z,101067.97
2022-12-07T17:45:42.891Z,101069.28
2022-12-07T17:48:14.009Z,101069.44
2022-12-07T17:51:02.903Z,101065.50
2022-12-07T17:53:34.092Z,101070.22
2022-12-07T17:56:27.629Z,101077.94
2022-12-07T17:58:56.428Z,101065.66
2022-12-07T18:01:32.884Z,101073.63
2022-12-07T18:04:05.763Z,101080.25
2022-12-07T18:06:37.501Z,101087.94
2022-12-07T18:09:08.967Z,101082.97
2022-12-07T18:11:40.036Z,101076.84
2022-12-07T18:14:11.284Z,101091.97
2022-12-07T18:16:42.289Z,101082.03
2022-12-07T18:19:15.703Z,101079.66
2022-12-07T18:21:46.876Z,101073.66
2022-12-07T18:24:19.107Z,101085.91
2022-12-07T18:26:50.082Z,101088.31
2022-12-07T18:29:21.207Z,101097.91
2022-12-07T18:31:52.279Z,101095.28
2022-12-07T18:34:23.396Z,101097.41
2022-12-07T18:36:54.813Z,101098.91
2022-12-07T18:39:31.531Z,101090.22
2022-12-07T18:42:04.709Z,101091.91
2022-12-07T18:44:35.463Z,101099.53
2022-12-07T18:47:06.753Z,101094.22
2022-12-07T18:49:37.674Z,101095.53
2022-12-07T18:52:08.901Z,101093.09
2022-12-07T18:54:40.347Z,101100.28
2022-12-07T18:57:11.072Z,101106.25
2022-12-07T18:59:48.296Z,101107.06
2022-12-07T19:02:20.599Z,101116.41
2022-12-07T19:04:51.567Z,101116.53
2022-12-07T19:07:22.747Z,101134.66
2022-12-07T19:09:54.094Z,101133.44
2022-12-07T19:12:24.884Z,101134.38
2022-12-07T19:14:56.906Z,101145.91
2022-12-07T19:17:28.081Z,101146.28
2022-12-07T19:19:59.313Z,101135.84
2022-12-07T19:22:30.300Z,101139.94
2022-12-07T19:25:01.542Z,101151.69
2022-12-07T19:27:35.181Z,101147.63
2022-12-07T19:30:07.431Z,101155.19
2022-12-07T19:32:41.766Z,101141.22
2022-12-07T19:35:12.614Z,101145.06
2022-12-07T19:37:43.381Z,101146.50
2022-12-07T19:40:14.888Z,101151.19
2022-12-07T19:42:45.789Z,101160.47
2022-12-07T19:45:16.557Z,101159.03
2022-12-07T19:47:47.518Z,101166.81
2022-12-07T19:50:18.283Z,101161.53
2022-12-07T19:52:49.488Z,101154.38
2022-12-07T19:55:20.306Z,101148.53
2022-12-07T19:57:51.039Z,101139.59
2022-12-07T20:00:22.726Z,101144.44
2022-12-07T20:02:56.838Z,101151.53
2022-12-07T20:05:27.751Z,101159.16
2022-12-07T20:07:58.643Z,101145.41
2022-12-07T20:10:29.650Z,101156.25
2022-12-07T20:13:18.788Z,101159.00
2022-12-07T20:15:50.789Z,101157.13
2022-12-07T20:18:21.695Z,101162.53
2022-12-07T20:21:00.711Z,101168.66
2022-12-07T20:23:31.741Z,101157.88
2022-12-07T20:26:12.435Z,101178.34
2022-12-07T20:28:47.414Z,101165.75
2022-12-07T20:31:19.577Z,101155.00
2022-12-07T20:33:50.946Z,101162.25
2022-12-07T20:36:22.116Z,101163.22
2022-12-07T20:38:53.478Z,101159.97
2022-12-07T20:41:42.888Z,101162.72
2022-12-07T20:44:15.085Z,101158.97
2022-12-07T20:46:46.047Z,101158.97
2022-12-07T20:49:18.594Z,101161.75
2022-12-07T20:51:49.620Z,101158.97
2022-12-07T20:54:20.873Z,101162.47
2022-12-07T20:56:51.739Z,101156.81
2022-12-07T20:59:22.940Z,101151.84
2022-12-07T21:01:54.830Z,101155.28
2022-12-07T21:04:25.962Z,101154.78
2022-12-07T21:06:57.188Z,101155.84
2022-12-07T21:09:28.484Z,101169.50
2022-12-07T21:11:59.387Z,101159.97
2022-12-07T21:14:30.236Z,101159.69
2022-12-07T21:17:01.464Z,101162.97
2022-12-07T21:19:32.817Z,101176.03
2022-12-07T21:22:03.951Z,101178.50
2022-12-07T21:24:35.217Z,101166.50
2022-12-07T21:27:06.198Z,101155.63
2022-12-07T21:29:46.931Z,101168.16
2022-12-07T21:32:19.609Z,101148.81
2022-12-07T21:34:50.910Z,101159.69
2022-12-07T21:37:21.788Z,101156.44
2022-12-07T21:39:53.067Z,101163.50
2022-12-07T21:42:24.495Z,101176.59
2022-12-07T21:44:55.292Z,101162.34
2022-12-07T21:47:26.212Z,101173.00
2022-12-07T21:49:57.141Z,101172.22
2022-12-07T21:52:28.080Z,101164.38
2022-12-07T21:54:59.323Z,101168.53
2022-12-07T21:57:30.285Z,101161.56
2022-12-07T22:00:01.726Z,101174.00
2022-12-07T22:02:35.424Z,101159.63
2022-12-07T22:05:06.619Z,101147.41
2022-12-07T22:07:37.773Z,101155.50
2022-12-07T22:10:09.681Z,101158.06
2022-12-07T22:12:40.694Z,101146.69
2022-12-07T22:15:12.329Z,101140.84
2022-12-07T22:17:43.355Z,101159.66
2022-12-07T22:20:14.734Z,101144.00
2022-12-07T22:22:46.231Z,101149.56
2022-12-07T22:25:17.894Z,101149.75
2022-12-07T22:27:48.865Z,101146.44
2022-12-07T22:30:20.113Z,101150.63
2022-12-07T22:32:51.360Z,101148.69
2022-12-07T22:35:22.462Z,101143.56
2022-12-07T22:37:53.195Z,101132.13
2022-12-07T22:40:24.010Z,101133.41
2022-12-07T22:42:54.871Z,101132.38
2022-12-07T22:45:25.811Z,101130.09
2022-12-07T22:47:57.000Z,101143.16
2022-12-07T22:50:27.743Z,101130.53
2022-12-07T22:52:58.657Z,101131.53
2022-12-07T22:55:29.589Z,101123.56
2022-12-07T22:58:00.471Z,101128.41
2022-12-07T23:00:32.060Z,101125.03
2022-12-07T23:03:04.023Z,101123.28
2022-12-07T23:05:35.233Z,101131.97
2022-12-07T23:08:06.462Z,101128.09
2022-12-07T23:10:37.462Z,101125.94
2022-12-07T23:13:26.003Z,101116.25
2022-12-07T23:15:57.192Z,101100.44
2022-12-07T23:18:28.531Z,101115.84
2022-12-07T23:20:59.884Z,101109.03
2022-12-07T23:23:30.617Z,101119.97
2022-12-07T23:26:06.739Z,101124.31
2022-12-07T23:28:38.321Z,101122.25
2022-12-07T23:31:09.777Z,101128.31
2022-12-07T23:33:41.553Z,101120.25
2022-12-07T23:36:14.937Z,101125.75
2022-12-07T23:38:47.543Z,101117.06
2022-12-07T23:41:20.587Z,101112.09
2022-12-07T23:43:51.849Z,101119.09
2022-12-07T23:46:26.172Z,101103.88
2022-12-07T23:48:58.670Z,101114.88
2022-12-07T23:51:29.902Z,101108.63
2022-12-07T23:54:02.949Z,101105.88
2022-12-07T23:56:36.138Z,101108.16
2022-12-07T23:59:07.411Z,101099.91
